sensor_id;sensor_type;location;lat;lon;timestamp;temperature;humidity
22923;DHT22;11627;51.322;22.816;2022-11-20T00:19:55;-4.00;1.00
22923;DHT22;11627;51.322;22.816;2022-11-20T00:22:31;-4.60;1.00
22923;DHT22;11627;51.322;22.816;2022-11-20T00:25:10;-4.40;1.00
22923;DHT22;11627;51.322;22.816;2022-11-20T00:27:36;-2.90;1.00
22923;DHT22;11627;51.322;22.816;2022-11-20T00:30:09;-2.60;1.00
22923;DHT22;11627;51.322;22.816;2022-11-20T00:32:40;-3.50;1.00
22923;DHT22;11627;51.322;22.816;2022-11-20T00:35:11;-3.50;1.00
22923;DHT22;11627;51.322;22.816;2022-11-20T00:37:49;-3.60;1.00
22923;DHT22;11627;51.322;22.816;2022-11-20T00:40:17;-3.50;1.00
22923;DHT22;11627;51.322;22.816;2022-11-20T00:46:28;-3.90;1.00
22923;DHT22;11627;51.322;22.816;2022-11-20T00:48:59;-2.80;1.00
22923;DHT22;11627;51.322;22.816;2022-11-20T00:51:48;-2.80;1.00
22923;DHT22;11627;51.322;22.816;2022-11-20T00:54:23;-2.40;1.00
22923;DHT22;11627;51.322;22.816;2022-11-20T00:56:57;-3.50;1.00
22923;DHT22;11627;51.322;22.816;2022-11-20T00:59:35;-4.40;1.00
22923;DHT22;11627;51.322;22.816;2022-11-20T01:02:06;-2.60;1.00
22923;DHT22;11627;51.322;22.816;2022-11-20T01:04:42;-2.80;1.00
22923;DHT22;11627;51.322;22.816;2022-11-20T01:07:18;-3.50;1.00
22923;DHT22;11627;51.322;22.816;2022-11-20T01:10:01;-4.10;1.00
22923;DHT22;11627;51.322;22.816;2022-11-20T01:12:36;-4.40;1.00
22923;DHT22;11627;51.322;22.816;2022-11-20T01:15:17;-2.60;1.00
22923;DHT22;11627;51.322;22.816;2022-11-20T01:17:54;-2.70;1.00
22923;DHT22;11627;51.322;22.816;2022-11-20T01:20:27;-3.60;1.00
22923;DHT22;11627;51.322;22.816;2022-11-20T01:23:08;-2.70;1.00
22923;DHT22;11627;51.322;22.816;2022-11-20T01:25:39;-3.40;1.00
22923;DHT22;11627;51.322;22.816;2022-11-20T01:28:08;-2.10;1.00
22923;DHT22;11627;51.322;22.816;2022-11-20T01:30:37;-2.50;1.00
22923;DHT22;11627;51.322;22.816;2022-11-20T01:33:02;-3.30;1.00
22923;DHT22;11627;51.322;22.816;2022-11-20T01:35:28;-3.30;1.00
22923;DHT22;11627;51.322;22.816;2022-11-20T01:37:53;-3.20;1.00
22923;DHT22;11627;51.322;22.816;2022-11-20T01:40:19;-3.10;1.00
22923;DHT22;11627;51.322;22.816;2022-11-20T01:42:53;-2.90;1.00
22923;DHT22;11627;51.322;22.816;2022-11-20T01:45:54;-3.00;1.00
22923;DHT22;11627;51.322;22.816;2022-11-20T01:48:22;-3.00;1.00
22923;DHT22;11627;51.322;22.816;2022-11-20T01:50:48;-3.00;1.00
22923;DHT22;11627;51.322;22.816;2022-11-20T01:53:16;-3.00;1.00
22923;DHT22;11627;51.322;22.816;2022-11-20T01:55:49;-2.90;1.00
22923;DHT22;11627;51.322;22.816;2022-11-20T01:58:18;-2.90;1.00
22923;DHT22;11627;51.322;22.816;2022-11-20T02:00:45;-2.80;1.00
22923;DHT22;11627;51.322;22.816;2022-11-20T02:03:13;-2.80;1.00
22923;DHT22;11627;51.322;22.816;2022-11-20T02:05:56;-2.70;1.00
22923;DHT22;11627;51.322;22.816;2022-11-20T02:08:24;-2.60;1.00
22923;DHT22;11627;51.322;22.816;2022-11-20T02:10:49;-2.60;1.00
22923;DHT22;11627;51.322;22.816;2022-11-20T02:13:16;-2.60;1.00
22923;DHT22;11627;51.322;22.816;2022-11-20T02:16:01;-2.50;1.00
22923;DHT22;11627;51.322;22.816;2022-11-20T02:18:27;-2.50;1.00
22923;DHT22;11627;51.322;22.816;2022-11-20T02:21:27;-2.40;1.00
22923;DHT22;11627;51.322;22.816;2022-11-20T02:24:12;-2.40;1.00
22923;DHT22;11627;51.322;22.816;2022-11-20T02:26:58;-2.30;1.00
22923;DHT22;11627;51.322;22.816;2022-11-20T02:29:29;-2.40;1.00
22923;DHT22;11627;51.322;22.816;2022-11-20T02:31:57;-2.40;1.00
22923;DHT22;11627;51.322;22.816;2022-11-20T02:34:24;-2.40;1.00
22923;DHT22;11627;51.322;22.816;2022-11-20T02:36:51;-2.40;1.00
22923;DHT22;11627;51.322;22.816;2022-11-20T02:39:19;-2.40;1.00
22923;DHT22;11627;51.322;22.816;2022-11-20T02:41:46;-2.40;1.00
22923;DHT22;11627;51.322;22.816;2022-11-20T02:44:12;-2.40;1.00
22923;DHT22;11627;51.322;22.816;2022-11-20T02:46:38;-2.40;1.00
22923;DHT22;11627;51.322;22.816;2022-11-20T02:49:04;-2.30;1.00
22923;DHT22;11627;51.322;22.816;2022-11-20T02:51:30;-2.30;1.00
22923;DHT22;11627;51.322;22.816;2022-11-20T02:53:57;-2.30;1.00
22923;DHT22;11627;51.322;22.816;2022-11-20T02:56:23;-2.30;1.00
22923;DHT22;11627;51.322;22.816;2022-11-20T02:58:49;-2.30;1.00
22923;DHT22;11627;51.322;22.816;2022-11-20T03:01:15;-2.30;1.00
22923;DHT22;11627;51.322;22.816;2022-11-20T03:03:40;-2.30;1.00
22923;DHT22;11627;51.322;22.816;2022-11-20T03:06:06;-2.20;1.00
22923;DHT22;11627;51.322;22.816;2022-11-20T03:08:32;-2.20;1.00
22923;DHT22;11627;51.322;22.816;2022-11-20T03:11:06;-2.20;1.00
22923;DHT22;11627;51.322;22.816;2022-11-20T03:13:33;-2.20;1.00
22923;DHT22;11627;51.322;22.816;2022-11-20T03:16:04;-2.20;1.00
22923;DHT22;11627;51.322;22.816;2022-11-20T03:18:29;-2.10;1.00
22923;DHT22;11627;51.322;22.816;2022-11-20T03:20:58;-2.10;1.00
22923;DHT22;11627;51.322;22.816;2022-11-20T03:23:24;-2.00;1.00
22923;DHT22;11627;51.322;22.816;2022-11-20T03:25:50;-2.10;1.00
22923;DHT22;11627;51.322;22.816;2022-11-20T03:28:15;-2.00;1.00
22923;DHT22;11627;51.322;22.816;2022-11-20T03:30:41;-2.10;1.00
22923;DHT22;11627;51.322;22.816;2022-11-20T03:33:07;-2.10;1.00
22923;DHT22;11627;51.322;22.816;2022-11-20T03:35:32;-2.10;1.00
22923;DHT22;11627;51.322;22.816;2022-11-20T03:37:58;-2.10;1.00
22923;DHT22;11627;51.322;22.816;2022-11-20T03:40:23;-2.00;1.00
22923;DHT22;11627;51.322;22.816;2022-11-20T03:42:49;-2.10;1.00
22923;DHT22;11627;51.322;22.816;2022-11-20T03:45:17;-2.00;1.00
22923;DHT22;11627;51.322;22.816;2022-11-20T03:47:43;-2.10;1.00
22923;DHT22;11627;51.322;22.816;2022-11-20T03:50:11;-2.10;1.00
22923;DHT22;11627;51.322;22.816;2022-11-20T03:52:38;-2.10;1.00
22923;DHT22;11627;51.322;22.816;2022-11-20T03:55:05;-2.20;1.00
22923;DHT22;11627;51.322;22.816;2022-11-20T03:57:31;-2.20;1.00
22923;DHT22;11627;51.322;22.816;2022-11-20T03:59:56;-2.20;1.00
22923;DHT22;11627;51.322;22.816;2022-11-20T04:02:22;-2.20;1.00
22923;DHT22;11627;51.322;22.816;2022-11-20T04:04:47;-2.20;1.00
22923;DHT22;11627;51.322;22.816;2022-11-20T04:07:13;-2.30;1.00
22923;DHT22;11627;51.322;22.816;2022-11-20T04:09:39;-2.30;1.00
22923;DHT22;11627;51.322;22.816;2022-11-20T04:12:04;-2.30;1.00
22923;DHT22;11627;51.322;22.816;2022-11-20T04:14:30;-2.40;1.00
22923;DHT22;11627;51.322;22.816;2022-11-20T04:16:55;-2.40;1.00
22923;DHT22;11627;51.322;22.816;2022-11-20T04:19:21;-2.50;1.00
22923;DHT22;11627;51.322;22.816;2022-11-20T04:21:46;-2.60;1.00
22923;DHT22;11627;51.322;22.816;2022-11-20T04:24:12;-2.60;1.00
22923;DHT22;11627;51.322;22.816;2022-11-20T04:26:38;-2.60;1.00
22923;DHT22;11627;51.322;22.816;2022-11-20T04:29:04;-2.60;1.00
22923;DHT22;11627;51.322;22.816;2022-11-20T04:31:32;-2.50;1.00
22923;DHT22;11627;51.322;22.816;2022-11-20T04:34:04;-2.50;1.00
22923;DHT22;11627;51.322;22.816;2022-11-20T04:36:30;-2.60;1.00
22923;DHT22;11627;51.322;22.816;2022-11-20T04:38:58;-2.60;1.00
22923;DHT22;11627;51.322;22.816;2022-11-20T04:41:26;-2.60;1.00
22923;DHT22;11627;51.322;22.816;2022-11-20T04:43:54;-2.60;1.00
22923;DHT22;11627;51.322;22.816;2022-11-20T04:46:29;-2.60;1.00
22923;DHT22;11627;51.322;22.816;2022-11-20T04:48:56;-2.60;1.00
22923;DHT22;11627;51.322;22.816;2022-11-20T04:51:22;-2.80;1.00
22923;DHT22;11627;51.322;22.816;2022-11-20T04:53:48;-2.70;1.00
22923;DHT22;11627;51.322;22.816;2022-11-20T04:56:14;-2.70;1.00
22923;DHT22;11627;51.322;22.816;2022-11-20T04:58:40;-2.80;1.00
22923;DHT22;11627;51.322;22.816;2022-11-20T05:03:31;-2.80;1.00
22923;DHT22;11627;51.322;22.816;2022-11-20T05:06:00;-2.80;1.00
22923;DHT22;11627;51.322;22.816;2022-11-20T05:08:26;-3.00;1.00
22923;DHT22;11627;51.322;22.816;2022-11-20T05:10:52;-2.90;1.00
22923;DHT22;11627;51.322;22.816;2022-11-20T05:13:18;-2.90;1.00
22923;DHT22;11627;51.322;22.816;2022-11-20T05:15:43;-2.90;1.00
22923;DHT22;11627;51.322;22.816;2022-11-20T05:18:09;-3.00;1.00
22923;DHT22;11627;51.322;22.816;2022-11-20T05:20:34;-3.00;1.00
22923;DHT22;11627;51.322;22.816;2022-11-20T05:23:01;-3.00;1.00
22923;DHT22;11627;51.322;22.816;2022-11-20T05:25:27;-3.00;1.00
22923;DHT22;11627;51.322;22.816;2022-11-20T05:27:53;-3.10;1.00
22923;DHT22;11627;51.322;22.816;2022-11-20T05:30:19;-3.20;1.00
22923;DHT22;11627;51.322;22.816;2022-11-20T05:32:44;-3.20;1.00
22923;DHT22;11627;51.322;22.816;2022-11-20T05:35:10;-3.30;1.00
22923;DHT22;11627;51.322;22.816;2022-11-20T05:37:35;-3.20;1.00
22923;DHT22;11627;51.322;22.816;2022-11-20T05:40:01;-3.20;1.00
22923;DHT22;11627;51.322;22.816;2022-11-20T05:42:30;-3.20;1.00
22923;DHT22;11627;51.322;22.816;2022-11-20T05:44:59;-3.30;1.00
22923;DHT22;11627;51.322;22.816;2022-11-20T05:47:27;-3.30;1.00
22923;DHT22;11627;51.322;22.816;2022-11-20T05:49:53;-3.20;1.00
22923;DHT22;11627;51.322;22.816;2022-11-20T05:52:19;-3.20;1.00
22923;DHT22;11627;51.322;22.816;2022-11-20T05:54:45;-3.20;1.00
22923;DHT22;11627;51.322;22.816;2022-11-20T05:57:10;-3.20;1.00
22923;DHT22;11627;51.322;22.816;2022-11-20T05:59:36;-3.30;1.00
22923;DHT22;11627;51.322;22.816;2022-11-20T06:02:02;-3.30;1.00
22923;DHT22;11627;51.322;22.816;2022-11-20T06:04:27;-3.10;1.00
22923;DHT22;11627;51.322;22.816;2022-11-20T06:06:53;-3.20;1.00
22923;DHT22;11627;51.322;22.816;2022-11-20T06:09:18;-3.20;1.00
22923;DHT22;11627;51.322;22.816;2022-11-20T06:11:44;-3.20;1.00
22923;DHT22;11627;51.322;22.816;2022-11-20T06:14:09;-3.30;1.00
22923;DHT22;11627;51.322;22.816;2022-11-20T06:16:35;-3.30;1.00
22923;DHT22;11627;51.322;22.816;2022-11-20T06:19:01;-3.30;1.00
22923;DHT22;11627;51.322;22.816;2022-11-20T06:21:26;-3.20;1.00
22923;DHT22;11627;51.322;22.816;2022-11-20T06:23:53;-3.20;1.00
22923;DHT22;11627;51.322;22.816;2022-11-20T06:26:24;-3.20;1.00
22923;DHT22;11627;51.322;22.816;2022-11-20T06:28:51;-3.10;1.00
22923;DHT22;11627;51.322;22.816;2022-11-20T06:31:19;-3.00;1.00
22923;DHT22;11627;51.322;22.816;2022-11-20T06:33:45;-3.00;1.00
22923;DHT22;11627;51.322;22.816;2022-11-20T06:36:13;-2.90;1.00
22923;DHT22;11627;51.322;22.816;2022-11-20T06:38:39;-2.90;1.00
22923;DHT22;11627;51.322;22.816;2022-11-20T06:41:15;-2.90;1.00
22923;DHT22;11627;51.322;22.816;2022-11-20T06:43:42;-2.70;1.00
22923;DHT22;11627;51.322;22.816;2022-11-20T06:46:09;-2.70;1.00
22923;DHT22;11627;51.322;22.816;2022-11-20T06:48:35;-2.70;1.00
22923;DHT22;11627;51.322;22.816;2022-11-20T06:51:03;-2.60;1.00
22923;DHT22;11627;51.322;22.816;2022-11-20T06:53:28;-2.60;1.00
22923;DHT22;11627;51.322;22.816;2022-11-20T06:55:56;-2.60;1.00
22923;DHT22;11627;51.322;22.816;2022-11-20T06:58:21;-2.50;1.00
22923;DHT22;11627;51.322;22.816;2022-11-20T07:00:47;-2.40;1.00
22923;DHT22;11627;51.322;22.816;2022-11-20T07:03:13;-2.40;1.00
22923;DHT22;11627;51.322;22.816;2022-11-20T07:05:39;-2.30;1.00
22923;DHT22;11627;51.322;22.816;2022-11-20T07:08:05;-2.20;1.00
22923;DHT22;11627;51.322;22.816;2022-11-20T07:10:31;-2.10;1.00
22923;DHT22;11627;51.322;22.816;2022-11-20T07:12:57;-2.00;1.00
22923;DHT22;11627;51.322;22.816;2022-11-20T07:15:24;-2.00;1.00
22923;DHT22;11627;51.322;22.816;2022-11-20T07:17:50;-1.90;1.00
22923;DHT22;11627;51.322;22.816;2022-11-20T07:20:16;-1.90;1.00
22923;DHT22;11627;51.322;22.816;2022-11-20T07:22:42;-1.90;1.00
22923;DHT22;11627;51.322;22.816;2022-11-20T07:25:09;-1.90;1.00
22923;DHT22;11627;51.322;22.816;2022-11-20T07:27:35;-1.80;1.00
22923;DHT22;11627;51.322;22.816;2022-11-20T07:30:02;-1.80;1.00
22923;DHT22;11627;51.322;22.816;2022-11-20T07:32:28;-1.70;1.00
22923;DHT22;11627;51.322;22.816;2022-11-20T07:34:53;-1.70;1.00
22923;DHT22;11627;51.322;22.816;2022-11-20T07:37:19;-1.60;1.00
22923;DHT22;11627;51.322;22.816;2022-11-20T07:39:44;-1.60;1.00
22923;DHT22;11627;51.322;22.816;2022-11-20T07:42:10;-1.60;1.00
22923;DHT22;11627;51.322;22.816;2022-11-20T07:44:38;-1.50;1.00
22923;DHT22;11627;51.322;22.816;2022-11-20T07:47:04;-1.50;1.00
22923;DHT22;11627;51.322;22.816;2022-11-20T07:49:29;-1.50;1.00
22923;DHT22;11627;51.322;22.816;2022-11-20T07:51:55;-1.40;1.00
22923;DHT22;11627;51.322;22.816;2022-11-20T07:54:21;-1.40;1.00
22923;DHT22;11627;51.322;22.816;2022-11-20T07:56:47;-1.40;1.00
22923;DHT22;11627;51.322;22.816;2022-11-20T07:59:13;-1.30;1.00
22923;DHT22;11627;51.322;22.816;2022-11-20T08:01:39;-1.30;1.00
22923;DHT22;11627;51.322;22.816;2022-11-20T08:04:05;-1.30;1.00
22923;DHT22;11627;51.322;22.816;2022-11-20T08:06:31;-1.20;1.00
22923;DHT22;11627;51.322;22.816;2022-11-20T08:08:57;-1.20;1.00
22923;DHT22;11627;51.322;22.816;2022-11-20T08:11:22;-1.20;1.00
22923;DHT22;11627;51.322;22.816;2022-11-20T08:14:07;-1.10;1.00
22923;DHT22;11627;51.322;22.816;2022-11-20T08:16:49;-1.00;1.00
22923;DHT22;11627;51.322;22.816;2022-11-20T08:19:16;-1.10;1.00
22923;DHT22;11627;51.322;22.816;2022-11-20T08:21:43;-1.00;1.00
22923;DHT22;11627;51.322;22.816;2022-11-20T08:24:09;-1.00;1.00
22923;DHT22;11627;51.322;22.816;2022-11-20T08:26:36;-0.90;1.00
22923;DHT22;11627;51.322;22.816;2022-11-20T08:29:03;-1.00;1.00
22923;DHT22;11627;51.322;22.816;2022-11-20T08:31:29;-0.70;1.00
22923;DHT22;11627;51.322;22.816;2022-11-20T08:33:55;-1.00;1.00
22923;DHT22;11627;51.322;22.816;2022-11-20T08:36:24;-1.00;1.00
22923;DHT22;11627;51.322;22.816;2022-11-20T08:38:54;-0.90;1.00
22923;DHT22;11627;51.322;22.816;2022-11-20T08:41:21;-0.90;1.00
22923;DHT22;11627;51.322;22.816;2022-11-20T08:43:51;-0.90;1.00
22923;DHT22;11627;51.322;22.816;2022-11-20T08:46:18;-0.80;1.00
22923;DHT22;11627;51.322;22.816;2022-11-20T08:48:44;-0.90;1.00
22923;DHT22;11627;51.322;22.816;2022-11-20T08:51:11;-0.80;1.00
22923;DHT22;11627;51.322;22.816;2022-11-20T08:53:37;-0.80;1.00
22923;DHT22;11627;51.322;22.816;2022-11-20T08:56:03;-0.10;1.00
22923;DHT22;11627;51.322;22.816;2022-11-20T08:58:29;-0.80;1.00
22923;DHT22;11627;51.322;22.816;2022-11-20T09:00:55;-0.70;1.00
22923;DHT22;11627;51.322;22.816;2022-11-20T09:03:20;-0.70;1.00
22923;DHT22;11627;51.322;22.816;2022-11-20T09:05:46;-0.80;1.00
22923;DHT22;11627;51.322;22.816;2022-11-20T09:08:12;-0.40;1.00
22923;DHT22;11627;51.322;22.816;2022-11-20T09:10:37;-0.90;1.00
22923;DHT22;11627;51.322;22.816;2022-11-20T09:13:08;-0.80;1.00
22923;DHT22;11627;51.322;22.816;2022-11-20T09:15:34;-0.80;1.00
22923;DHT22;11627;51.322;22.816;2022-11-20T09:18:03;-0.80;1.00
22923;DHT22;11627;51.322;22.816;2022-11-20T09:20:32;0.20;1.00
22923;DHT22;11627;51.322;22.816;2022-11-20T09:22:57;-0.90;1.00
22923;DHT22;11627;51.322;22.816;2022-11-20T09:25:23;-0.80;1.00
22923;DHT22;11627;51.322;22.816;2022-11-20T09:27:58;-0.80;1.00
22923;DHT22;11627;51.322;22.816;2022-11-20T09:30:24;-0.70;1.00
22923;DHT22;11627;51.322;22.816;2022-11-20T09:32:50;-0.70;1.00
22923;DHT22;11627;51.322;22.816;2022-11-20T09:35:16;-0.80;1.00
22923;DHT22;11627;51.322;22.816;2022-11-20T09:37:43;-0.80;1.00
22923;DHT22;11627;51.322;22.816;2022-11-20T09:40:20;-0.80;1.00
22923;DHT22;11627;51.322;22.816;2022-11-20T09:46:22;-0.80;1.00
22923;DHT22;11627;51.322;22.816;2022-11-20T09:48:56;-0.80;3.40
22923;DHT22;11627;51.322;22.816;2022-11-20T09:54:30;-0.80;7.30
22923;DHT22;11627;51.322;22.816;2022-11-20T09:57:00;-0.70;7.00
22923;DHT22;11627;51.322;22.816;2022-11-20T09:59:45;-0.80;9.10
22923;DHT22;11627;51.322;22.816;2022-11-20T10:07:47;-0.70;10.00
22923;DHT22;11627;51.322;22.816;2022-11-20T10:10:16;-0.70;13.10
22923;DHT22;11627;51.322;22.816;2022-11-20T10:23:37;-0.60;8.30
22923;DHT22;11627;51.322;22.816;2022-11-20T10:29:17;-0.60;7.90
22923;DHT22;11627;51.322;22.816;2022-11-20T10:31:53;-0.60;9.00
22923;DHT22;11627;51.322;22.816;2022-11-20T10:37:27;-0.50;10.50
22923;DHT22;11627;51.322;22.816;2022-11-20T10:40:00;-0.50;9.70
22923;DHT22;11627;51.322;22.816;2022-11-20T10:42:37;0.50;11.00
22923;DHT22;11627;51.322;22.816;2022-11-20T10:45:21;-0.50;8.90
22923;DHT22;11627;51.322;22.816;2022-11-20T10:48:10;-0.40;8.00
22923;DHT22;11627;51.322;22.816;2022-11-20T10:50:39;-0.40;10.50
22923;DHT22;11627;51.322;22.816;2022-11-20T10:56:29;-0.50;12.30
22923;DHT22;11627;51.322;22.816;2022-11-20T11:01:46;-0.40;15.20
22923;DHT22;11627;51.322;22.816;2022-11-20T11:09:52;-0.30;13.20
22923;DHT22;11627;51.322;22.816;2022-11-20T11:12:19;-0.30;12.00
22923;DHT22;11627;51.322;22.816;2022-11-20T11:14:54;-0.20;12.30
22923;DHT22;11627;51.322;22.816;2022-11-20T11:17:22;-0.20;13.20
22923;DHT22;11627;51.322;22.816;2022-11-20T11:22:58;-0.20;13.90
22923;DHT22;11627;51.322;22.816;2022-11-20T11:25:29;-0.10;12.80
22923;DHT22;11627;51.322;22.816;2022-11-20T11:27:59;-0.10;11.60
22923;DHT22;11627;51.322;22.816;2022-11-20T11:30:27;-0.10;11.10
22923;DHT22;11627;51.322;22.816;2022-11-20T11:33:27;-0.20;11.90
22923;DHT22;11627;51.322;22.816;2022-11-20T11:38:38;-0.20;12.40
22923;DHT22;11627;51.322;22.816;2022-11-20T11:41:07;-0.10;12.10
22923;DHT22;11627;51.322;22.816;2022-11-20T11:43:36;-0.20;12.20
22923;DHT22;11627;51.322;22.816;2022-11-20T11:57:16;-0.10;16.50
22923;DHT22;11627;51.322;22.816;2022-11-20T12:00:12;-0.10;13.50
22923;DHT22;11627;51.322;22.816;2022-11-20T12:05:23;0.00;13.90
22923;DHT22;11627;51.322;22.816;2022-11-20T12:07:51;0.00;13.40
22923;DHT22;11627;51.322;22.816;2022-11-20T12:10:28;0.10;12.40
22923;DHT22;11627;51.322;22.816;2022-11-20T12:13:15;0.00;13.60
22923;DHT22;11627;51.322;22.816;2022-11-20T12:15:45;0.10;12.00
22923;DHT22;11627;51.322;22.816;2022-11-20T12:18:18;0.10;9.30
22923;DHT22;11627;51.322;22.816;2022-11-20T12:21:04;0.00;7.80
22923;DHT22;11627;51.322;22.816;2022-11-20T12:26:10;0.00;10.00
22923;DHT22;11627;51.322;22.816;2022-11-20T12:28:44;-0.10;11.70
22923;DHT22;11627;51.322;22.816;2022-11-20T12:34:35;0.00;12.80
22923;DHT22;11627;51.322;22.816;2022-11-20T12:40:02;0.10;12.10
22923;DHT22;11627;51.322;22.816;2022-11-20T12:56:55;0.00;14.60
22923;DHT22;11627;51.322;22.816;2022-11-20T12:59:47;0.00;15.80
22923;DHT22;11627;51.322;22.816;2022-11-20T13:05:36;0.00;17.90
22923;DHT22;11627;51.322;22.816;2022-11-20T13:08:03;0.00;18.80
22923;DHT22;11627;51.322;22.816;2022-11-20T13:13:24;0.00;18.00
22923;DHT22;11627;51.322;22.816;2022-11-20T13:18:29;0.10;19.70
22923;DHT22;11627;51.322;22.816;2022-11-20T13:20:59;0.10;18.00
22923;DHT22;11627;51.322;22.816;2022-11-20T13:23:26;0.10;19.20
22923;DHT22;11627;51.322;22.816;2022-11-20T13:26:22;0.20;17.00
22923;DHT22;11627;51.322;22.816;2022-11-20T13:29:04;0.10;15.80
22923;DHT22;11627;51.322;22.816;2022-11-20T13:31:33;0.10;12.40
22923;DHT22;11627;51.322;22.816;2022-11-20T13:34:01;0.20;11.10
22923;DHT22;11627;51.322;22.816;2022-11-20T13:36:32;0.20;10.40
22923;DHT22;11627;51.322;22.816;2022-11-20T13:38:58;0.10;9.10
22923;DHT22;11627;51.322;22.816;2022-11-20T13:41:36;0.10;5.90
22923;DHT22;11627;51.322;22.816;2022-11-20T13:44:09;0.00;6.60
22923;DHT22;11627;51.322;22.816;2022-11-20T13:46:41;0.00;4.70
22923;DHT22;11627;51.322;22.816;2022-11-20T13:49:15;0.00;2.60
22923;DHT22;11627;51.322;22.816;2022-11-20T13:51:47;0.00;1.90
22923;DHT22;11627;51.322;22.816;2022-11-20T14:00:16;0.00;6.80
22923;DHT22;11627;51.322;22.816;2022-11-20T14:02:44;0.00;3.80
22923;DHT22;11627;51.322;22.816;2022-11-20T14:05:22;0.00;4.20
22923;DHT22;11627;51.322;22.816;2022-11-20T14:07:50;0.10;2.10
22923;DHT22;11627;51.322;22.816;2022-11-20T14:10:26;0.10;1.00
22923;DHT22;11627;51.322;22.816;2022-11-20T14:12:52;0.10;1.00
22923;DHT22;11627;51.322;22.816;2022-11-20T14:15:44;0.20;1.00
22923;DHT22;11627;51.322;22.816;2022-11-20T14:18:21;0.10;1.00
22923;DHT22;11627;51.322;22.816;2022-11-20T14:20:47;0.10;1.00
22923;DHT22;11627;51.322;22.816;2022-11-20T14:23:24;0.10;1.00
22923;DHT22;11627;51.322;22.816;2022-11-20T14:25:51;0.00;1.00
22923;DHT22;11627;51.322;22.816;2022-11-20T14:28:28;0.10;1.00
22923;DHT22;11627;51.322;22.816;2022-11-20T14:30:55;0.20;1.00
22923;DHT22;11627;51.322;22.816;2022-11-20T14:33:23;0.20;1.00
22923;DHT22;11627;51.322;22.816;2022-11-20T14:35:52;0.20;1.00
22923;DHT22;11627;51.322;22.816;2022-11-20T14:38:22;0.20;1.00
22923;DHT22;11627;51.322;22.816;2022-11-20T14:40:49;0.20;1.00
22923;DHT22;11627;51.322;22.816;2022-11-20T14:43:32;0.40;1.00
22923;DHT22;11627;51.322;22.816;2022-11-20T14:46:02;0.60;1.00
22923;DHT22;11627;51.322;22.816;2022-11-20T14:48:37;0.10;1.00
22923;DHT22;11627;51.322;22.816;2022-11-20T14:51:03;0.10;1.00
22923;DHT22;11627;51.322;22.816;2022-11-20T14:53:29;0.60;1.00
22923;DHT22;11627;51.322;22.816;2022-11-20T14:55:59;0.10;1.00
22923;DHT22;11627;51.322;22.816;2022-11-20T14:58:31;0.10;1.00
22923;DHT22;11627;51.322;22.816;2022-11-20T15:03:37;0.00;1.00
22923;DHT22;11627;51.322;22.816;2022-11-20T15:06:03;0.00;1.00
22923;DHT22;11627;51.322;22.816;2022-11-20T15:08:29;0.00;1.00
22923;DHT22;11627;51.322;22.816;2022-11-20T15:10:55;0.00;1.00
22923;DHT22;11627;51.322;22.816;2022-11-20T15:13:32;-0.10;1.00
22923;DHT22;11627;51.322;22.816;2022-11-20T15:16:02;-0.10;1.00
22923;DHT22;11627;51.322;22.816;2022-11-20T15:18:36;-0.10;1.00
22923;DHT22;11627;51.322;22.816;2022-11-20T15:21:06;0.00;1.00
22923;DHT22;11627;51.322;22.816;2022-11-20T15:23:35;0.00;1.00
22923;DHT22;11627;51.322;22.816;2022-11-20T15:26:01;-0.10;1.00
22923;DHT22;11627;51.322;22.816;2022-11-20T15:28:34;0.20;2.60
22923;DHT22;11627;51.322;22.816;2022-11-20T15:31:01;-0.20;6.00
22923;DHT22;11627;51.322;22.816;2022-11-20T15:33:28;-0.20;7.10
22923;DHT22;11627;51.322;22.816;2022-11-20T15:35:54;0.20;7.10
22923;DHT22;11627;51.322;22.816;2022-11-20T15:38:19;-0.30;8.30
22923;DHT22;11627;51.322;22.816;2022-11-20T15:40:45;-0.30;8.20
22923;DHT22;11627;51.322;22.816;2022-11-20T15:43:11;-0.40;7.50
22923;DHT22;11627;51.322;22.816;2022-11-20T15:45:40;0.10;5.70
22923;DHT22;11627;51.322;22.816;2022-11-20T15:48:21;-0.40;5.50
22923;DHT22;11627;51.322;22.816;2022-11-20T15:53:16;-0.50;6.40
22923;DHT22;11627;51.322;22.816;2022-11-20T15:55:42;-0.50;9.30
22923;DHT22;11627;51.322;22.816;2022-11-20T15:58:07;-0.50;9.30
22923;DHT22;11627;51.322;22.816;2022-11-20T16:00:33;-0.50;10.00
22923;DHT22;11627;51.322;22.816;2022-11-20T16:02:59;-0.50;10.90
22923;DHT22;11627;51.322;22.816;2022-11-20T16:05:28;-0.60;10.50
22923;DHT22;11627;51.322;22.816;2022-11-20T16:07:54;-0.60;10.80
22923;DHT22;11627;51.322;22.816;2022-11-20T16:10:19;-0.50;9.00
22923;DHT22;11627;51.322;22.816;2022-11-20T16:12:45;0.00;10.00
22923;DHT22;11627;51.322;22.816;2022-11-20T16:15:30;-0.60;11.50
22923;DHT22;11627;51.322;22.816;2022-11-20T16:18:12;-0.60;10.80
22923;DHT22;11627;51.322;22.816;2022-11-20T16:20:39;-0.60;12.70
22923;DHT22;11627;51.322;22.816;2022-11-20T16:23:05;-0.60;12.80
22923;DHT22;11627;51.322;22.816;2022-11-20T16:25:31;-0.40;13.60
22923;DHT22;11627;51.322;22.816;2022-11-20T16:27:57;-0.60;12.60
22923;DHT22;11627;51.322;22.816;2022-11-20T16:30:22;-0.60;12.90
22923;DHT22;11627;51.322;22.816;2022-11-20T16:32:48;-0.70;12.60
22923;DHT22;11627;51.322;22.816;2022-11-20T16:35:14;0.20;13.60
22923;DHT22;11627;51.322;22.816;2022-11-20T16:37:39;-0.80;12.20
22923;DHT22;11627;51.322;22.816;2022-11-20T16:40:06;-0.80;12.20
22923;DHT22;11627;51.322;22.816;2022-11-20T16:42:35;-0.80;12.50
22923;DHT22;11627;51.322;22.816;2022-11-20T16:45:01;-0.80;12.20
22923;DHT22;11627;51.322;22.816;2022-11-20T16:47:26;-0.80;10.60
22923;DHT22;11627;51.322;22.816;2022-11-20T16:49:52;-0.20;12.90
22923;DHT22;11627;51.322;22.816;2022-11-20T16:52:18;-0.40;14.00
22923;DHT22;11627;51.322;22.816;2022-11-20T16:54:43;-0.30;15.00
22923;DHT22;11627;51.322;22.816;2022-11-20T16:57:09;-0.80;15.80
22923;DHT22;11627;51.322;22.816;2022-11-20T16:59:35;-0.80;15.30
22923;DHT22;11627;51.322;22.816;2022-11-20T17:02:00;-0.50;10.80
22923;DHT22;11627;51.322;22.816;2022-11-20T17:04:26;-0.90;11.10
22923;DHT22;11627;51.322;22.816;2022-11-20T17:06:51;-1.00;8.90
22923;DHT22;11627;51.322;22.816;2022-11-20T17:09:17;-1.10;10.20
22923;DHT22;11627;51.322;22.816;2022-11-20T17:11:43;-1.10;13.10
22923;DHT22;11627;51.322;22.816;2022-11-20T17:14:10;-1.00;12.80
22923;DHT22;11627;51.322;22.816;2022-11-20T17:16:36;-1.10;10.90
22923;DHT22;11627;51.322;22.816;2022-11-20T17:19:03;-1.10;13.90
22923;DHT22;11627;51.322;22.816;2022-11-20T17:21:31;-1.10;16.10
22923;DHT22;11627;51.322;22.816;2022-11-20T17:24:00;-0.80;16.70
22923;DHT22;11627;51.322;22.816;2022-11-20T17:26:27;-0.60;16.80
22923;DHT22;11627;51.322;22.816;2022-11-20T17:28:56;-1.00;16.50
22923;DHT22;11627;51.322;22.816;2022-11-20T17:31:23;-1.00;16.20
22923;DHT22;11627;51.322;22.816;2022-11-20T17:33:49;-1.00;16.70
22923;DHT22;11627;51.322;22.816;2022-11-20T17:36:16;-0.90;16.60
22923;DHT22;11627;51.322;22.816;2022-11-20T17:38:42;-0.90;14.70
22923;DHT22;11627;51.322;22.816;2022-11-20T17:43:36;-1.00;14.40
22923;DHT22;11627;51.322;22.816;2022-11-20T17:46:13;-0.90;17.80
22923;DHT22;11627;51.322;22.816;2022-11-20T17:48:40;-0.90;18.30
22923;DHT22;11627;51.322;22.816;2022-11-20T17:51:17;-0.90;17.80
22923;DHT22;11627;51.322;22.816;2022-11-20T17:53:45;-0.80;14.20